sensor_id;sensor_type;location;lat;lon;timestamp;temperature;humidity
76787;DHT22;65739;51.482;5.702;2024-01-06T00:00:40;7.50;99.90
76787;DHT22;65739;51.482;5.702;2024-01-06T00:03:06;7.50;99.90
76787;DHT22;65739;51.482;5.702;2024-01-06T00:05:31;7.50;99.90
76787;DHT22;65739;51.482;5.702;2024-01-06T00:07:57;7.50;99.90
76787;DHT22;65739;51.482;5.702;2024-01-06T00:10:22;7.50;99.90
76787;DHT22;65739;51.482;5.702;2024-01-06T00:12:51;7.40;99.90
76787;DHT22;65739;51.482;5.702;2024-01-06T00:15:17;7.40;99.90
76787;DHT22;65739;51.482;5.702;2024-01-06T00:17:43;7.30;99.90
76787;DHT22;65739;51.482;5.702;2024-01-06T00:20:10;7.30;99.90
76787;DHT22;65739;51.482;5.702;2024-01-06T00:22:35;7.40;99.90
76787;DHT22;65739;51.482;5.702;2024-01-06T00:25:01;7.30;99.90
76787;DHT22;65739;51.482;5.702;2024-01-06T00:27:27;7.40;99.90
76787;DHT22;65739;51.482;5.702;2024-01-06T00:29:53;7.30;99.90
76787;DHT22;65739;51.482;5.702;2024-01-06T00:32:18;7.30;99.90
76787;DHT22;65739;51.482;5.702;2024-01-06T00:34:44;7.30;99.90
76787;DHT22;65739;51.482;5.702;2024-01-06T00:37:10;7.30;99.90
76787;DHT22;65739;51.482;5.702;2024-01-06T00:39:36;7.30;99.90
76787;DHT22;65739;51.482;5.702;2024-01-06T00:42:02;7.20;99.90
76787;DHT22;65739;51.482;5.702;2024-01-06T00:44:28;7.20;99.90
76787;DHT22;65739;51.482;5.702;2024-01-06T00:46:53;7.20;99.90
76787;DHT22;65739;51.482;5.702;2024-01-06T00:49:19;7.20;99.90
76787;DHT22;65739;51.482;5.702;2024-01-06T00:51:45;7.20;99.90
76787;DHT22;65739;51.482;5.702;2024-01-06T00:54:10;7.20;99.90
76787;DHT22;65739;51.482;5.702;2024-01-06T00:56:36;7.20;99.90
76787;DHT22;65739;51.482;5.702;2024-01-06T00:59:02;7.10;99.90
76787;DHT22;65739;51.482;5.702;2024-01-06T01:01:31;7.20;99.90
76787;DHT22;65739;51.482;5.702;2024-01-06T01:03:57;7.20;99.90
76787;DHT22;65739;51.482;5.702;2024-01-06T01:06:23;7.10;99.90
76787;DHT22;65739;51.482;5.702;2024-01-06T01:08:48;7.10;99.90
76787;DHT22;65739;51.482;5.702;2024-01-06T01:11:14;7.00;99.90
76787;DHT22;65739;51.482;5.702;2024-01-06T01:13:40;6.90;99.90
76787;DHT22;65739;51.482;5.702;2024-01-06T01:16:06;6.90;99.90
76787;DHT22;65739;51.482;5.702;2024-01-06T01:18:31;6.80;99.90
76787;DHT22;65739;51.482;5.702;2024-01-06T01:20:57;6.80;99.90
76787;DHT22;65739;51.482;5.702;2024-01-06T01:23:23;6.80;99.90
76787;DHT22;65739;51.482;5.702;2024-01-06T01:25:48;6.70;99.90
76787;DHT22;65739;51.482;5.702;2024-01-06T01:28:17;6.80;99.90
76787;DHT22;65739;51.482;5.702;2024-01-06T01:30:43;6.70;99.90
76787;DHT22;65739;51.482;5.702;2024-01-06T01:33:09;6.70;99.90
76787;DHT22;65739;51.482;5.702;2024-01-06T01:35:34;6.70;99.90
76787;DHT22;65739;51.482;5.702;2024-01-06T01:38:03;6.70;99.90
76787;DHT22;65739;51.482;5.702;2024-01-06T01:40:29;6.70;99.90
76787;DHT22;65739;51.482;5.702;2024-01-06T01:42:54;6.60;99.90
76787;DHT22;65739;51.482;5.702;2024-01-06T01:45:20;6.60;99.90
76787;DHT22;65739;51.482;5.702;2024-01-06T01:47:46;6.50;99.90
76787;DHT22;65739;51.482;5.702;2024-01-06T01:50:12;6.50;99.90
76787;DHT22;65739;51.482;5.702;2024-01-06T01:52:41;6.50;99.90
76787;DHT22;65739;51.482;5.702;2024-01-06T01:55:08;6.50;99.90
76787;DHT22;65739;51.482;5.702;2024-01-06T01:57:37;6.50;99.90
76787;DHT22;65739;51.482;5.702;2024-01-06T02:00:04;6.40;99.90
76787;DHT22;65739;51.482;5.702;2024-01-06T02:02:30;6.40;99.90
76787;DHT22;65739;51.482;5.702;2024-01-06T02:05:04;6.40;99.90
76787;DHT22;65739;51.482;5.702;2024-01-06T02:07:30;6.40;99.90
76787;DHT22;65739;51.482;5.702;2024-01-06T02:13:33;6.30;99.90
76787;DHT22;65739;51.482;5.702;2024-01-06T02:15:59;6.30;99.90
76787;DHT22;65739;51.482;5.702;2024-01-06T02:18:34;6.30;99.90
76787;DHT22;65739;51.482;5.702;2024-01-06T02:21:01;6.30;99.90
76787;DHT22;65739;51.482;5.702;2024-01-06T02:23:28;6.40;99.90
76787;DHT22;65739;51.482;5.702;2024-01-06T02:25:54;6.40;99.90
76787;DHT22;65739;51.482;5.702;2024-01-06T02:28:20;6.30;99.90
76787;DHT22;65739;51.482;5.702;2024-01-06T02:30:46;6.20;99.90
76787;DHT22;65739;51.482;5.702;2024-01-06T02:33:15;6.30;99.90
76787;DHT22;65739;51.482;5.702;2024-01-06T02:35:40;6.20;99.90
76787;DHT22;65739;51.482;5.702;2024-01-06T02:38:07;6.20;99.90
76787;DHT22;65739;51.482;5.702;2024-01-06T02:40:34;6.30;99.90
76787;DHT22;65739;51.482;5.702;2024-01-06T02:42:59;6.30;99.90
76787;DHT22;65739;51.482;5.702;2024-01-06T02:45:42;6.30;99.90
76787;DHT22;65739;51.482;5.702;2024-01-06T02:48:16;6.20;99.90
76787;DHT22;65739;51.482;5.702;2024-01-06T02:50:51;6.20;99.90
76787;DHT22;65739;51.482;5.702;2024-01-06T02:53:37;6.10;99.90
76787;DHT22;65739;51.482;5.702;2024-01-06T02:56:41;6.10;99.90
76787;DHT22;65739;51.482;5.702;2024-01-06T02:59:22;6.10;99.90
76787;DHT22;65739;51.482;5.702;2024-01-06T03:05:18;6.00;99.90
76787;DHT22;65739;51.482;5.702;2024-01-06T03:08:16;6.00;99.90
76787;DHT22;65739;51.482;5.702;2024-01-06T03:10:44;6.00;99.90
76787;DHT22;65739;51.482;5.702;2024-01-06T03:13:27;5.90;99.90
76787;DHT22;65739;51.482;5.702;2024-01-06T03:16:04;5.90;99.90
76787;DHT22;65739;51.482;5.702;2024-01-06T03:18:33;5.90;99.90
76787;DHT22;65739;51.482;5.702;2024-01-06T03:20:58;5.80;99.90
76787;DHT22;65739;51.482;5.702;2024-01-06T03:23:27;5.80;99.90
76787;DHT22;65739;51.482;5.702;2024-01-06T03:26:01;5.70;99.90
76787;DHT22;65739;51.482;5.702;2024-01-06T03:28:42;5.70;99.90
76787;DHT22;65739;51.482;5.702;2024-01-06T03:31:13;5.60;99.90
76787;DHT22;65739;51.482;5.702;2024-01-06T03:33:44;5.60;99.90
76787;DHT22;65739;51.482;5.702;2024-01-06T03:36:12;5.60;99.90
76787;DHT22;65739;51.482;5.702;2024-01-06T03:38:39;5.60;99.90
76787;DHT22;65739;51.482;5.702;2024-01-06T03:41:05;5.70;99.90
76787;DHT22;65739;51.482;5.702;2024-01-06T03:43:31;5.60;99.90
76787;DHT22;65739;51.482;5.702;2024-01-06T03:45:57;5.60;99.90
76787;DHT22;65739;51.482;5.702;2024-01-06T03:48:26;5.60;99.90
76787;DHT22;65739;51.482;5.702;2024-01-06T03:51:15;5.60;99.90
76787;DHT22;65739;51.482;5.702;2024-01-06T03:56:41;5.50;99.90
76787;DHT22;65739;51.482;5.702;2024-01-06T03:59:27;5.50;99.90
76787;DHT22;65739;51.482;5.702;2024-01-06T04:02:13;5.50;99.90
76787;DHT22;65739;51.482;5.702;2024-01-06T04:04:58;5.50;99.90
76787;DHT22;65739;51.482;5.702;2024-01-06T04:07:26;5.50;99.90
76787;DHT22;65739;51.482;5.702;2024-01-06T04:09:52;5.50;99.90
76787;DHT22;65739;51.482;5.702;2024-01-06T04:12:24;5.40;99.90
76787;DHT22;65739;51.482;5.702;2024-01-06T04:14:50;5.40;99.90
76787;DHT22;65739;51.482;5.702;2024-01-06T04:17:16;5.40;99.90
76787;DHT22;65739;51.482;5.702;2024-01-06T04:23:28;5.40;99.90
76787;DHT22;65739;51.482;5.702;2024-01-06T04:26:48;5.40;99.90
76787;DHT22;65739;51.482;5.702;2024-01-06T04:29:30;5.30;99.90
76787;DHT22;65739;51.482;5.702;2024-01-06T04:31:55;5.30;99.90
76787;DHT22;65739;51.482;5.702;2024-01-06T04:34:30;5.30;99.90
76787;DHT22;65739;51.482;5.702;2024-01-06T04:36:56;5.30;99.90
76787;DHT22;65739;51.482;5.702;2024-01-06T04:39:24;5.20;99.90
76787;DHT22;65739;51.482;5.702;2024-01-06T04:41:54;5.20;99.90
76787;DHT22;65739;51.482;5.702;2024-01-06T04:44:21;5.20;99.90
76787;DHT22;65739;51.482;5.702;2024-01-06T04:47:02;5.20;99.90
76787;DHT22;65739;51.482;5.702;2024-01-06T04:49:28;5.20;99.90
76787;DHT22;65739;51.482;5.702;2024-01-06T04:51:59;5.20;99.90
76787;DHT22;65739;51.482;5.702;2024-01-06T04:54:39;5.10;99.90
76787;DHT22;65739;51.482;5.702;2024-01-06T04:57:05;5.10;99.90
76787;DHT22;65739;51.482;5.702;2024-01-06T04:59:36;5.10;99.90
76787;DHT22;65739;51.482;5.702;2024-01-06T05:02:20;5.10;99.90
76787;DHT22;65739;51.482;5.702;2024-01-06T05:04:46;5.10;99.90
76787;DHT22;65739;51.482;5.702;2024-01-06T05:07:12;5.00;99.90
76787;DHT22;65739;51.482;5.702;2024-01-06T05:09:51;5.00;99.90
76787;DHT22;65739;51.482;5.702;2024-01-06T05:12:53;5.10;99.90
76787;DHT22;65739;51.482;5.702;2024-01-06T05:15:21;5.00;99.90
76787;DHT22;65739;51.482;5.702;2024-01-06T05:17:58;4.90;99.90
76787;DHT22;65739;51.482;5.702;2024-01-06T05:20:30;4.90;99.90
76787;DHT22;65739;51.482;5.702;2024-01-06T05:23:43;5.00;99.90
76787;DHT22;65739;51.482;5.702;2024-01-06T05:27:10;5.00;99.90
76787;DHT22;65739;51.482;5.702;2024-01-06T05:29:35;5.00;99.90
76787;DHT22;65739;51.482;5.702;2024-01-06T05:32:04;5.00;99.90
76787;DHT22;65739;51.482;5.702;2024-01-06T05:34:35;5.10;99.90
76787;DHT22;65739;51.482;5.702;2024-01-06T05:37:01;5.10;99.90
76787;DHT22;65739;51.482;5.702;2024-01-06T05:39:30;5.10;99.90
76787;DHT22;65739;51.482;5.702;2024-01-06T05:41:56;5.10;99.90
76787;DHT22;65739;51.482;5.702;2024-01-06T05:44:34;5.10;99.90
76787;DHT22;65739;51.482;5.702;2024-01-06T05:47:00;5.10;99.90
76787;DHT22;65739;51.482;5.702;2024-01-06T05:49:32;5.00;99.90
76787;DHT22;65739;51.482;5.702;2024-01-06T05:52:23;5.00;99.90
76787;DHT22;65739;51.482;5.702;2024-01-06T05:54:49;5.10;99.90
76787;DHT22;65739;51.482;5.702;2024-01-06T06:00:11;5.10;99.90
76787;DHT22;65739;51.482;5.702;2024-01-06T06:02:40;5.20;99.90
76787;DHT22;65739;51.482;5.702;2024-01-06T06:05:08;5.10;99.90
76787;DHT22;65739;51.482;5.702;2024-01-06T06:07:37;5.10;99.90
76787;DHT22;65739;51.482;5.702;2024-01-06T06:10:12;5.10;99.90
76787;DHT22;65739;51.482;5.702;2024-01-06T06:12:39;5.10;99.90
76787;DHT22;65739;51.482;5.702;2024-01-06T06:15:19;5.10;99.90
76787;DHT22;65739;51.482;5.702;2024-01-06T06:18:27;5.10;99.90
76787;DHT22;65739;51.482;5.702;2024-01-06T06:21:15;5.10;99.90
76787;DHT22;65739;51.482;5.702;2024-01-06T06:24:45;5.10;99.90
76787;DHT22;65739;51.482;5.702;2024-01-06T06:27:43;5.00;99.90
76787;DHT22;65739;51.482;5.702;2024-01-06T06:30:31;5.00;99.90
76787;DHT22;65739;51.482;5.702;2024-01-06T06:32:57;5.10;99.90
76787;DHT22;65739;51.482;5.702;2024-01-06T06:35:37;5.00;99.90
76787;DHT22;65739;51.482;5.702;2024-01-06T06:45:42;4.90;99.90
76787;DHT22;65739;51.482;5.702;2024-01-06T06:48:30;4.90;99.90
76787;DHT22;65739;51.482;5.702;2024-01-06T06:51:04;5.00;99.90
76787;DHT22;65739;51.482;5.702;2024-01-06T06:53:36;5.10;99.90
76787;DHT22;65739;51.482;5.702;2024-01-06T06:56:05;5.00;99.90
76787;DHT22;65739;51.482;5.702;2024-01-06T07:02:23;4.90;99.90
76787;DHT22;65739;51.482;5.702;2024-01-06T10:46:24;4.20;99.90
76787;DHT22;65739;51.482;5.702;2024-01-06T10:49:04;4.20;99.90
76787;DHT22;65739;51.482;5.702;2024-01-06T10:54:58;4.10;99.90
76787;DHT22;65739;51.482;5.702;2024-01-06T10:58:14;4.10;99.90
76787;DHT22;65739;51.482;5.702;2024-01-06T11:07:00;4.10;99.90
76787;DHT22;65739;51.482;5.702;2024-01-06T11:10:15;4.10;99.90
76787;DHT22;65739;51.482;5.702;2024-01-06T11:17:05;4.30;99.90
76787;DHT22;65739;51.482;5.702;2024-01-06T11:26:56;4.20;99.90
76787;DHT22;65739;51.482;5.702;2024-01-06T11:33:52;4.20;99.90
76787;DHT22;65739;51.482;5.702;2024-01-06T11:40:08;4.30;99.90
76787;DHT22;65739;51.482;5.702;2024-01-06T12:21:12;4.10;99.90
76787;DHT22;65739;51.482;5.702;2024-01-06T12:27:06;4.10;99.90
76787;DHT22;65739;51.482;5.702;2024-01-06T12:30:34;4.10;99.90
76787;DHT22;65739;51.482;5.702;2024-01-06T12:33:14;4.10;99.90
76787;DHT22;65739;51.482;5.702;2024-01-06T12:39:38;4.10;99.90
76787;DHT22;65739;51.482;5.702;2024-01-06T12:42:22;4.10;99.90
76787;DHT22;65739;51.482;5.702;2024-01-06T12:51:48;4.00;99.90
76787;DHT22;65739;51.482;5.702;2024-01-06T13:01:17;4.00;99.90
76787;DHT22;65739;51.482;5.702;2024-01-06T13:07:44;4.00;99.90
76787;DHT22;65739;51.482;5.702;2024-01-06T13:10:50;4.00;99.90
76787;DHT22;65739;51.482;5.702;2024-01-06T13:17:00;4.10;99.90
76787;DHT22;65739;51.482;5.702;2024-01-06T13:19:35;4.00;99.90
76787;DHT22;65739;51.482;5.702;2024-01-06T13:23:42;3.90;99.90
76787;DHT22;65739;51.482;5.702;2024-01-06T13:26:04;3.90;99.90
76787;DHT22;65739;51.482;5.702;2024-01-06T13:29:20;4.00;99.90
76787;DHT22;65739;51.482;5.702;2024-01-06T13:32:37;4.00;99.90
76787;DHT22;65739;51.482;5.702;2024-01-06T13:52:30;3.90;99.90
76787;DHT22;65739;51.482;5.702;2024-01-06T14:06:17;3.90;99.90
76787;DHT22;65739;51.482;5.702;2024-01-06T14:13:14;3.90;99.90
76787;DHT22;65739;51.482;5.702;2024-01-06T14:26:15;3.90;99.90
76787;DHT22;65739;51.482;5.702;2024-01-06T14:29:36;3.90;99.90
76787;DHT22;65739;51.482;5.702;2024-01-06T14:33:04;3.80;99.90
76787;DHT22;65739;51.482;5.702;2024-01-06T14:36:04;3.80;99.90
76787;DHT22;65739;51.482;5.702;2024-01-06T15:38:18;3.70;99.90
76787;DHT22;65739;51.482;5.702;2024-01-06T15:41:44;3.80;99.90
76787;DHT22;65739;51.482;5.702;2024-01-06T15:51:04;3.90;99.90
76787;DHT22;65739;51.482;5.702;2024-01-06T16:00:31;3.80;99.90
76787;DHT22;65739;51.482;5.702;2024-01-06T16:03:50;3.80;99.90
76787;DHT22;65739;51.482;5.702;2024-01-06T16:06:59;3.80;99.90
76787;DHT22;65739;51.482;5.702;2024-01-06T16:09:33;3.80;99.90
76787;DHT22;65739;51.482;5.702;2024-01-06T16:12:45;3.90;99.90
76787;DHT22;65739;51.482;5.702;2024-01-06T16:15:33;3.80;99.90
76787;DHT22;65739;51.482;5.702;2024-01-06T16:21:32;3.80;99.90
76787;DHT22;65739;51.482;5.702;2024-01-06T16:24:30;3.80;99.90
76787;DHT22;65739;51.482;5.702;2024-01-06T16:27:28;3.80;99.90
76787;DHT22;65739;51.482;5.702;2024-01-06T16:33:20;3.80;99.90
76787;DHT22;65739;51.482;5.702;2024-01-06T16:36:44;3.90;99.90
76787;DHT22;65739;51.482;5.702;2024-01-06T16:39:10;3.90;99.90
76787;DHT22;65739;51.482;5.702;2024-01-06T16:41:44;3.90;99.90
76787;DHT22;65739;51.482;5.702;2024-01-06T16:44:16;3.90;99.90
76787;DHT22;65739;51.482;5.702;2024-01-06T16:46:44;3.90;99.90
76787;DHT22;65739;51.482;5.702;2024-01-06T16:49:29;3.90;99.90
76787;DHT22;65739;51.482;5.702;2024-01-06T16:52:32;3.90;99.90
76787;DHT22;65739;51.482;5.702;2024-01-06T16:55:27;3.80;99.90
76787;DHT22;65739;51.482;5.702;2024-01-06T17:01:15;3.70;99.90
76787;DHT22;65739;51.482;5.702;2024-01-06T17:10:19;3.70;99.90
76787;DHT22;65739;51.482;5.702;2024-01-06T17:13:29;3.70;99.90
76787;DHT22;65739;51.482;5.702;2024-01-06T17:16:23;3.80;99.90
76787;DHT22;65739;51.482;5.702;2024-01-06T17:23:20;3.80;99.90
76787;DHT22;65739;51.482;5.702;2024-01-06T17:26:31;3.70;99.90
76787;DHT22;65739;51.482;5.702;2024-01-06T17:38:27;3.70;99.90
76787;DHT22;65739;51.482;5.702;2024-01-06T17:40:56;3.60;99.90
76787;DHT22;65739;51.482;5.702;2024-01-06T17:43:47;3.70;99.90
76787;DHT22;65739;51.482;5.702;2024-01-06T17:46:49;3.80;99.90
76787;DHT22;65739;51.482;5.702;2024-01-06T17:52:46;3.80;99.90
76787;DHT22;65739;51.482;5.702;2024-01-06T17:55:39;3.80;99.90
76787;DHT22;65739;51.482;5.702;2024-01-06T17:58:27;3.80;99.90
76787;DHT22;65739;51.482;5.702;2024-01-06T18:00:56;3.80;99.90
76787;DHT22;65739;51.482;5.702;2024-01-06T18:06:17;3.70;99.90
76787;DHT22;65739;51.482;5.702;2024-01-06T18:08:44;3.70;99.90
76787;DHT22;65739;51.482;5.702;2024-01-06T18:11:10;3.70;99.90
76787;DHT22;65739;51.482;5.702;2024-01-06T18:27:09;3.60;99.90
76787;DHT22;65739;51.482;5.702;2024-01-06T18:30:09;3.50;99.90
76787;DHT22;65739;51.482;5.702;2024-01-06T18:32:47;3.50;99.90
76787;DHT22;65739;51.482;5.702;2024-01-06T18:35:19;3.60;99.90
76787;DHT22;65739;51.482;5.702;2024-01-06T18:38:28;3.50;99.90
76787;DHT22;65739;51.482;5.702;2024-01-06T18:43:59;3.50;99.90
76787;DHT22;65739;51.482;5.702;2024-01-06T18:46:50;3.40;99.90
76787;DHT22;65739;51.482;5.702;2024-01-06T18:49:21;3.50;99.90
76787;DHT22;65739;51.482;5.702;2024-01-06T18:55:30;3.40;99.90
76787;DHT22;65739;51.482;5.702;2024-01-06T18:57:56;3.40;99.90
76787;DHT22;65739;51.482;5.702;2024-01-06T19:06:39;3.40;99.90
76787;DHT22;65739;51.482;5.702;2024-01-06T19:09:25;3.40;99.90
76787;DHT22;65739;51.482;5.702;2024-01-06T19:19:44;3.40;99.90
76787;DHT22;65739;51.482;5.702;2024-01-06T19:22:14;3.40;99.90
76787;DHT22;65739;51.482;5.702;2024-01-06T19:25:03;3.40;99.90
76787;DHT22;65739;51.482;5.702;2024-01-06T19:27:29;3.40;99.90
76787;DHT22;65739;51.482;5.702;2024-01-06T19:30:06;3.30;99.90
76787;DHT22;65739;51.482;5.702;2024-01-06T19:36:35;3.30;99.90
76787;DHT22;65739;51.482;5.702;2024-01-06T19:39:58;3.40;99.90
76787;DHT22;65739;51.482;5.702;2024-01-06T19:43:02;3.50;99.90
76787;DHT22;65739;51.482;5.702;2024-01-06T19:49:40;3.40;99.90
76787;DHT22;65739;51.482;5.702;2024-01-06T19:52:27;3.40;99.90
76787;DHT22;65739;51.482;5.702;2024-01-06T19:54:56;3.30;99.90
76787;DHT22;65739;51.482;5.702;2024-01-06T19:57:41;3.40;99.90
76787;DHT22;65739;51.482;5.702;2024-01-06T20:00:37;3.40;99.90
76787;DHT22;65739;51.482;5.702;2024-01-06T20:03:57;3.40;99.90
76787;DHT22;65739;51.482;5.702;2024-01-06T20:12:10;3.40;99.90
76787;DHT22;65739;51.482;5.702;2024-01-06T20:14:48;3.50;99.90
76787;DHT22;65739;51.482;5.702;2024-01-06T20:17:34;3.50;99.90
76787;DHT22;65739;51.482;5.702;2024-01-06T20:27:14;3.50;99.90
76787;DHT22;65739;51.482;5.702;2024-01-06T20:29:49;3.40;99.90
76787;DHT22;65739;51.482;5.702;2024-01-06T20:32:28;3.40;99.90
76787;DHT22;65739;51.482;5.702;2024-01-06T20:34:54;3.40;99.90
76787;DHT22;65739;51.482;5.702;2024-01-06T20:37:30;3.40;99.90
76787;DHT22;65739;51.482;5.702;2024-01-06T20:39:59;3.40;99.90
76787;DHT22;65739;51.482;5.702;2024-01-06T20:42:24;3.40;99.90
76787;DHT22;65739;51.482;5.702;2024-01-06T20:44:58;3.40;99.90
76787;DHT22;65739;51.482;5.702;2024-01-06T20:47:46;3.40;99.90
76787;DHT22;65739;51.482;5.702;2024-01-06T20:50:17;3.30;99.90
76787;DHT22;65739;51.482;5.702;2024-01-06T20:52:45;3.30;99.90
76787;DHT22;65739;51.482;5.702;2024-01-06T20:55:14;3.30;99.90
76787;DHT22;65739;51.482;5.702;2024-01-06T20:57:40;3.20;99.90
76787;DHT22;65739;51.482;5.702;2024-01-06T21:00:27;3.20;99.90
76787;DHT22;65739;51.482;5.702;2024-01-06T21:03:25;3.20;99.90
76787;DHT22;65739;51.482;5.702;2024-01-06T21:06:22;3.10;99.90
76787;DHT22;65739;51.482;5.702;2024-01-06T21:08:57;3.10;99.90
76787;DHT22;65739;51.482;5.702;2024-01-06T21:11:47;3.20;99.90
76787;DHT22;65739;51.482;5.702;2024-01-06T21:14:22;3.20;99.90
76787;DHT22;65739;51.482;5.702;2024-01-06T21:20:02;3.10;99.90
76787;DHT22;65739;51.482;5.702;2024-01-06T21:22:42;3.10;99.90
76787;DHT22;65739;51.482;5.702;2024-01-06T21:25:08;3.10;99.90
76787;DHT22;65739;51.482;5.702;2024-01-06T21:31:49;3.00;99.90
76787;DHT22;65739;51.482;5.702;2024-01-06T21:38:09;3.00;99.90
76787;DHT22;65739;51.482;5.702;2024-01-06T21:40:43;2.90;99.90
76787;DHT22;65739;51.482;5.702;2024-01-06T21:43:27;2.90;99.90
76787;DHT22;65739;51.482;5.702;2024-01-06T21:46:14;2.90;99.90
76787;DHT22;65739;51.482;5.702;2024-01-06T21:58:23;2.80;99.90
76787;DHT22;65739;51.482;5.702;2024-01-06T22:01:00;2.60;99.90
76787;DHT22;65739;51.482;5.702;2024-01-06T22:10:09;2.60;99.90
76787;DHT22;65739;51.482;5.702;2024-01-06T22:16:11;2.50;99.90
76787;DHT22;65739;51.482;5.702;2024-01-06T22:21:54;2.50;99.90
76787;DHT22;65739;51.482;5.702;2024-01-06T22:24:29;2.50;99.90
76787;DHT22;65739;51.482;5.702;2024-01-06T22:26:58;2.50;99.90
76787;DHT22;65739;51.482;5.702;2024-01-06T22:29:24;2.50;99.90
76787;DHT22;65739;51.482;5.702;2024-01-06T22:31:53;2.50;99.90
76787;DHT22;65739;51.482;5.702;2024-01-06T22:35:13;2.40;99.90
76787;DHT22;65739;51.482;5.702;2024-01-06T22:37:44;2.40;99.90
76787;DHT22;65739;51.482;5.702;2024-01-06T22:40:13;2.40;99.90
76787;DHT22;65739;51.482;5.702;2024-01-06T22:43:13;2.40;99.90
76787;DHT22;65739;51.482;5.702;2024-01-06T22:45:39;2.40;99.90
76787;DHT22;65739;51.482;5.702;2024-01-06T22:48:06;2.30;99.90
76787;DHT22;65739;51.482;5.702;2024-01-06T22:50:56;2.30;99.90
76787;DHT22;65739;51.482;5.702;2024-01-06T22:56:29;2.50;99.90
76787;DHT22;65739;51.482;5.702;2024-01-06T22:59:46;2.50;99.90
76787;DHT22;65739;51.482;5.702;2024-01-06T23:02:02;2.40;99.90
76787;DHT22;65739;51.482;5.702;2024-01-06T23:04:41;2.50;99.90
76787;DHT22;65739;51.482;5.702;2024-01-06T23:07:10;2.50;99.90
76787;DHT22;65739;51.482;5.702;2024-01-06T23:13:14;2.40;99.90
76787;DHT22;65739;51.482;5.702;2024-01-06T23:19:40;2.30;99.90
76787;DHT22;65739;51.482;5.702;2024-01-06T23:25:28;2.30;99.90
76787;DHT22;65739;51.482;5.702;2024-01-06T23:28:15;2.30;99.90
76787;DHT22;65739;51.482;5.702;2024-01-06T23:34:44;2.30;99.90
76787;DHT22;65739;51.482;5.702;2024-01-06T23:40:34;2.30;99.90
76787;DHT22;65739;51.482;5.702;2024-01-06T23:46:23;2.30;99.90
76787;DHT22;65739;51.482;5.702;2024-01-06T23:52:13;2.40;99.90
76787;DHT22;65739;51.482;5.702;2024-01-06T23:54:58;2.40;99.90
76787;DHT22;65739;51.482;5.702;2024-01-06T23:57:54;2.40;99.90
